createdAt,value
2023-10-09T00:00:39.696Z,4.00
2023-10-09T00:05:47.913Z,4.20
2023-10-09T00:10:58.611Z,4.30
2023-10-09T00:16:16.112Z,4.00
2023-10-09T00:21:21.969Z,4.03
2023-10-09T00:26:24.450Z,4.22
2023-10-09T00:31:34.971Z,4.75
2023-10-09T00:36:52.206Z,4.47
2023-10-09T00:41:55.790Z,4.53
2023-10-09T00:52:19.455Z,4.40
2023-10-09T00:57:26.038Z,4.65
2023-10-09T01:02:43.459Z,4.10
2023-10-09T01:07:47.495Z,4.57
2023-10-09T01:12:56.466Z,4.35
2023-10-09T01:18:01.272Z,4.47
2023-10-09T01:23:03.823Z,4.70
2023-10-09T01:28:06.410Z,4.22
2023-10-09T01:33:23.717Z,4.15
2023-10-09T01:38:41.964Z,3.88
2023-10-09T01:43:46.152Z,4.95
2023-10-09T01:53:58.234Z,4.00
2023-10-09T01:59:06.995Z,4.03
2023-10-09T02:04:15.817Z,4.40
2023-10-09T02:09:28.571Z,4.97
2023-10-09T02:14:30.901Z,5.30
2023-10-09T02:19:35.698Z,5.10
2023-10-09T02:24:51.602Z,4.55
2023-10-09T02:29:54.572Z,4.47
2023-10-09T02:34:57.308Z,4.75
2023-10-09T02:40:04.047Z,4.43
2023-10-09T02:45:12.215Z,4.47
2023-10-09T02:50:20.552Z,4.68
2023-10-09T02:55:27.177Z,4.43
2023-10-09T03:00:33.376Z,4.95
2023-10-09T03:05:43.883Z,4.25
2023-10-09T03:10:46.750Z,5.07
2023-10-09T03:15:49.758Z,4.50
2023-10-09T03:20:51.996Z,4.43
2023-10-09T03:25:59.197Z,4.75
2023-10-09T03:31:08.408Z,4.68
2023-10-09T03:36:10.725Z,4.47
2023-10-09T03:41:17.100Z,4.10
2023-10-09T03:46:24.030Z,4.80
2023-10-09T03:51:27.635Z,4.18
2023-10-09T03:56:29.801Z,4.32
2023-10-09T04:01:39.476Z,4.50
2023-10-09T04:06:42.212Z,4.43
2023-10-09T04:11:44.950Z,4.18
2023-10-09T04:16:53.256Z,4.72
2023-10-09T04:21:56.975Z,4.25
2023-10-09T04:26:59.454Z,4.63
2023-10-09T04:32:02.298Z,4.65
2023-10-09T04:37:27.580Z,4.85
2023-10-09T04:42:52.772Z,4.28
2023-10-09T04:48:08.236Z,4.05
2023-10-09T04:53:16.556Z,4.18
2023-10-09T04:58:25.335Z,4.40
2023-10-09T05:03:44.585Z,3.83
2023-10-09T05:08:47.722Z,4.00
2023-10-09T05:13:59.332Z,4.13
2023-10-09T05:19:04.685Z,4.00
2023-10-09T05:24:13.853Z,4.25
2023-10-09T05:29:21.528Z,4.18
2023-10-09T05:34:36.187Z,4.30
2023-10-09T05:39:44.960Z,4.13
2023-10-09T05:45:05.776Z,4.10
2023-10-09T05:50:14.713Z,3.47
2023-10-09T05:55:25.779Z,3.92
2023-10-09T06:00:46.333Z,3.92
2023-10-09T06:06:03.077Z,3.67
2023-10-09T06:11:28.677Z,4.07
2023-10-09T06:16:42.988Z,3.90
2023-10-09T06:21:54.116Z,3.80
2023-10-09T06:27:02.213Z,3.60
2023-10-09T06:32:27.741Z,3.70
2023-10-09T06:37:32.688Z,3.90
2023-10-09T06:42:35.241Z,3.63
2023-10-09T06:47:43.932Z,3.85
2023-10-09T06:53:09.643Z,3.90
2023-10-09T06:58:16.731Z,3.78
2023-10-09T07:03:21.400Z,3.83
2023-10-09T07:08:38.781Z,3.60
2023-10-09T07:13:40.900Z,3.78
2023-10-09T07:18:51.062Z,3.72
2023-10-09T07:23:58.002Z,4.25
2023-10-09T07:29:17.634Z,3.70
2023-10-09T07:34:38.403Z,4.00
2023-10-09T07:39:51.051Z,4.10
2023-10-09T07:44:57.960Z,3.75
2023-10-09T07:50:00.758Z,3.63
2023-10-09T07:55:03.926Z,4.25
2023-10-09T08:00:25.043Z,3.38
2023-10-09T08:05:34.665Z,3.88
2023-10-09T08:10:59.113Z,3.35
2023-10-09T08:16:05.398Z,3.78
2023-10-09T08:21:07.709Z,4.00
2023-10-09T08:26:17.637Z,3.50
2023-10-09T08:31:36.190Z,3.53
2023-10-09T08:36:38.676Z,3.63
2023-10-09T08:41:42.250Z,3.28
2023-10-09T08:51:48.576Z,3.65
2023-10-09T08:56:51.457Z,3.58
2023-10-09T09:01:54.305Z,4.30
2023-10-09T09:06:56.618Z,4.10
2023-10-09T09:12:01.888Z,3.65
2023-10-09T09:17:06.328Z,3.47
2023-10-09T09:22:15.183Z,3.90
2023-10-09T09:27:19.969Z,3.88
2023-10-09T09:32:39.843Z,3.30
2023-10-09T09:37:44.919Z,3.72
2023-10-09T09:42:50.239Z,3.28
2023-10-09T09:47:56.101Z,3.75
2023-10-09T09:52:59.835Z,3.53
2023-10-09T09:58:07.705Z,3.58
2023-10-09T10:03:34.642Z,3.88
2023-10-09T10:08:40.635Z,4.10
2023-10-09T10:13:42.877Z,2.85
2023-10-09T10:19:22.880Z,3.53
2023-10-09T10:24:31.991Z,3.78
2023-10-09T10:29:35.542Z,3.70
2023-10-09T10:34:59.457Z,3.13
2023-10-09T10:40:02.842Z,3.22
2023-10-09T10:45:25.704Z,3.40
2023-10-09T10:50:30.588Z,3.72
2023-10-09T10:55:32.772Z,3.13
2023-10-09T11:00:53.438Z,3.45
2023-10-09T11:05:57.286Z,3.70
2023-10-09T11:11:17.197Z,3.67
2023-10-09T11:16:38.437Z,3.55
2023-10-09T11:21:44.426Z,4.00
2023-10-09T11:26:55.501Z,3.47
2023-10-09T11:32:10.806Z,3.72
2023-10-09T11:42:16.010Z,4.00
2023-10-09T11:47:21.402Z,3.38
2023-10-09T11:52:33.139Z,3.47
2023-10-09T11:57:36.553Z,3.70
2023-10-09T12:02:45.775Z,3.80
2023-10-09T12:07:55.343Z,3.70
2023-10-09T12:13:00.534Z,4.07
2023-10-09T12:18:03.169Z,3.50
2023-10-09T12:23:08.628Z,3.72
2023-10-09T12:28:13.583Z,3.42
2023-10-09T12:33:17.150Z,3.97
2023-10-09T12:38:24.192Z,3.78
2023-10-09T12:43:29.242Z,3.83
2023-10-09T12:48:33.329Z,3.20
2023-10-09T12:53:35.572Z,3.78
2023-10-09T12:58:40.321Z,3.67
2023-10-09T13:03:44.203Z,3.70
2023-10-09T13:08:46.818Z,3.63
2023-10-09T13:13:52.155Z,4.00
2023-10-09T13:19:00.837Z,3.67
2023-10-09T13:24:03.660Z,3.40
2023-10-09T13:29:10.459Z,3.67
2023-10-09T13:34:16.551Z,3.10
2023-10-09T13:39:26.317Z,3.20
2023-10-09T13:44:29.302Z,3.45
2023-10-09T13:49:31.871Z,3.65
2023-10-09T13:54:34.334Z,3.65
2023-10-09T13:59:38.178Z,3.65
2023-10-09T14:04:40.352Z,3.70
2023-10-09T14:09:45.248Z,3.95
2023-10-09T14:14:50.687Z,4.03
2023-10-09T14:19:54.668Z,4.13
2023-10-09T14:24:57.006Z,3.97
2023-10-09T14:30:02.356Z,4.13
2023-10-09T14:35:14.590Z,3.92
2023-10-09T14:40:22.660Z,3.92
2023-10-09T14:45:27.714Z,3.80
2023-10-09T14:50:30.318Z,3.92
2023-10-09T14:55:33.166Z,4.10
2023-10-09T15:00:35.651Z,4.28
2023-10-09T15:05:37.895Z,3.92
2023-10-09T15:10:50.330Z,3.85
2023-10-09T15:15:52.631Z,3.88
2023-10-09T15:20:55.029Z,3.90
2023-10-09T15:25:57.292Z,3.75
2023-10-09T15:31:00.924Z,4.10
2023-10-09T15:36:12.512Z,3.92
2023-10-09T15:41:16.778Z,4.13
2023-10-09T15:46:19.083Z,3.75
2023-10-09T15:51:21.690Z,3.88
2023-10-09T15:56:24.257Z,3.92
2023-10-09T16:01:26.515Z,4.30
2023-10-09T16:06:32.511Z,4.13
2023-10-09T16:11:35.400Z,3.90
2023-10-09T16:16:43.254Z,4.00
2023-10-09T16:21:46.102Z,3.92
2023-10-09T16:26:52.564Z,3.88
2023-10-09T16:31:56.732Z,3.78
2023-10-09T16:36:58.982Z,4.03
2023-10-09T16:42:02.525Z,4.43
2023-10-09T16:47:05.639Z,4.10
2023-10-09T16:52:12.676Z,3.75
2023-10-09T16:57:14.889Z,4.22
2023-10-09T17:02:24.171Z,3.67
2023-10-09T17:12:31.348Z,3.55
2023-10-09T17:17:33.517Z,4.20
2023-10-09T17:22:35.896Z,3.55
2023-10-09T17:27:38.199Z,4.18
2023-10-09T17:32:40.339Z,4.13
2023-10-09T17:37:42.834Z,3.88
2023-10-09T17:42:45.923Z,3.65
2023-10-09T17:47:53.248Z,3.80
2023-10-09T17:53:00.933Z,3.90
2023-10-09T17:58:11.539Z,4.10
2023-10-09T18:03:17.146Z,3.83
2023-10-09T18:08:19.504Z,4.55
2023-10-09T18:13:22.263Z,3.65
2023-10-09T18:18:24.540Z,3.88
2023-10-09T18:23:30.377Z,4.32
2023-10-09T18:28:32.631Z,4.40
2023-10-09T18:33:34.763Z,4.10
2023-10-09T18:38:39.718Z,3.88
2023-10-09T18:43:43.337Z,4.68
2023-10-09T18:48:47.087Z,5.22
2023-10-09T18:53:49.555Z,5.35
2023-10-09T18:58:52.201Z,5.15
2023-10-09T19:03:54.593Z,5.10
2023-10-09T19:08:59.843Z,5.32
2023-10-09T19:14:02.178Z,4.63
2023-10-09T19:19:09.487Z,5.32
2023-10-09T19:24:14.992Z,4.70
2023-10-09T19:29:17.331Z,4.82
2023-10-09T19:34:19.662Z,5.10
2023-10-09T19:39:21.885Z,4.95
2023-10-09T19:44:24.149Z,4.72
2023-10-09T19:49:27.483Z,4.82
2023-10-09T19:59:32.045Z,4.95
2023-10-09T20:04:34.177Z,4.50
2023-10-09T20:09:36.325Z,4.90
2023-10-09T20:14:39.101Z,4.38
2023-10-09T20:19:41.458Z,5.00
2023-10-09T20:24:43.851Z,4.65
2023-10-09T20:29:47.945Z,5.18
2023-10-09T20:34:53.397Z,4.63
2023-10-09T20:40:00.154Z,4.47
2023-10-09T20:45:02.734Z,5.38
2023-10-09T20:50:08.368Z,4.90
2023-10-09T20:55:11.548Z,4.70
2023-10-09T21:00:20.603Z,4.63
2023-10-09T21:05:27.419Z,5.05
2023-10-09T21:10:31.460Z,4.80
2023-10-09T21:15:36.338Z,4.47
2023-10-09T21:20:39.707Z,4.43
2023-10-09T21:25:42.063Z,4.60
2023-10-09T21:30:44.414Z,4.95
2023-10-09T21:35:46.697Z,4.70
2023-10-09T21:40:52.234Z,4.60
2023-10-09T21:45:59.422Z,4.60
2023-10-09T21:51:01.750Z,4.40
2023-10-09T21:56:09.060Z,4.82
2023-10-09T22:01:13.331Z,4.85
2023-10-09T22:06:16.676Z,4.88
2023-10-09T22:16:23.891Z,4.90
2023-10-09T22:21:26.237Z,4.72
2023-10-09T22:26:28.433Z,4.70
2023-10-09T22:31:30.643Z,4.72
2023-10-09T22:36:53.129Z,4.88
2023-10-09T22:41:56.776Z,4.88
2023-10-09T22:47:01.395Z,4.25
2023-10-09T22:52:12.548Z,4.85
2023-10-09T22:57:14.970Z,4.57
2023-10-09T23:02:24.117Z,4.85
2023-10-09T23:12:36.184Z,4.60
2023-10-09T23:17:49.421Z,4.20
2023-10-09T23:22:53.103Z,5.05
2023-10-09T23:28:15.597Z,4.55
2023-10-09T23:33:23.776Z,4.78
2023-10-09T23:38:36.144Z,4.80
2023-10-09T23:43:46.134Z,4.68
2023-10-09T23:48:54.128Z,5.10
2023-10-09T23:54:03.003Z,4.88
2023-10-09T23:59:13.043Z,4.72
